createdAt,value
2019-02-18T00:01:52.775Z,3.70
2019-02-18T00:04:20.355Z,3.81
2019-02-18T00:06:47.823Z,3.74
2019-02-18T00:09:15.310Z,3.54
2019-02-18T00:11:42.805Z,3.62
2019-02-18T00:14:10.269Z,3.64
2019-02-18T00:16:37.851Z,3.62
2019-02-18T00:19:05.254Z,3.64
2019-02-18T00:21:32.725Z,3.75
2019-02-18T00:24:00.182Z,3.90
2019-02-18T00:26:27.563Z,3.90
2019-02-18T00:28:55.083Z,3.87
2019-02-18T00:31:22.718Z,3.76
2019-02-18T00:33:50.326Z,3.67
2019-02-18T00:36:17.795Z,3.62
2019-02-18T00:38:45.312Z,3.62
2019-02-18T00:41:12.814Z,3.57
2019-02-18T00:43:40.295Z,3.49
2019-02-18T00:46:07.770Z,3.51
2019-02-18T00:48:35.194Z,3.60
2019-02-18T00:51:02.714Z,3.77
2019-02-18T00:53:30.122Z,3.86
2019-02-18T00:55:57.606Z,3.87
2019-02-18T00:58:25.115Z,3.86
2019-02-18T01:00:52.579Z,3.93
2019-02-18T01:03:20.258Z,3.81
2019-02-18T01:05:47.804Z,3.70
2019-02-18T01:08:15.194Z,3.70
2019-02-18T01:10:42.650Z,3.50
2019-02-18T01:13:10.117Z,3.59
2019-02-18T01:15:37.498Z,3.53
2019-02-18T01:18:05.073Z,3.53
2019-02-18T01:20:32.544Z,3.45
2019-02-18T01:22:59.938Z,3.34
2019-02-18T01:25:27.429Z,3.08
2019-02-18T01:27:54.985Z,3.02
2019-02-18T01:30:22.429Z,3.10
2019-02-18T01:32:50.079Z,3.17
2019-02-18T01:35:17.584Z,3.21
2019-02-18T01:37:46.285Z,3.19
2019-02-18T01:40:14.087Z,3.25
2019-02-18T01:42:41.455Z,3.44
2019-02-18T01:45:10.338Z,3.39
2019-02-18T01:47:37.893Z,3.21
2019-02-18T01:50:07.454Z,3.07
2019-02-18T01:52:34.943Z,2.83
2019-02-18T01:55:02.489Z,2.79
2019-02-18T01:57:29.907Z,2.69
2019-02-18T01:59:57.344Z,2.68
2019-02-18T02:02:24.726Z,2.59
2019-02-18T02:04:52.482Z,2.52
2019-02-18T02:07:20.028Z,2.57
2019-02-18T02:09:47.460Z,2.41
2019-02-18T02:12:14.857Z,2.56
2019-02-18T02:14:42.308Z,2.39
2019-02-18T02:17:09.730Z,2.21
2019-02-18T02:19:37.099Z,2.45
2019-02-18T02:22:04.581Z,2.31
2019-02-18T02:24:32.013Z,2.28
2019-02-18T02:26:59.409Z,2.50
2019-02-18T02:29:26.829Z,2.37
2019-02-18T02:31:54.372Z,2.22
2019-02-18T02:34:21.744Z,2.08
2019-02-18T02:36:49.385Z,2.03
2019-02-18T02:39:16.930Z,1.88
2019-02-18T02:41:44.318Z,1.98
2019-02-18T02:44:11.800Z,1.93
2019-02-18T02:46:39.261Z,1.96
2019-02-18T02:49:06.593Z,1.80
2019-02-18T02:51:34.059Z,1.73
2019-02-18T02:54:01.517Z,1.79
2019-02-18T02:56:29.039Z,1.84
2019-02-18T02:58:56.523Z,1.95
2019-02-18T03:01:23.988Z,1.89
2019-02-18T03:03:51.389Z,1.84
2019-02-18T03:06:18.968Z,1.81
2019-02-18T03:08:46.400Z,1.78
2019-02-18T03:11:13.860Z,1.78
2019-02-18T03:13:41.311Z,1.69
2019-02-18T03:16:08.731Z,1.68
2019-02-18T03:18:36.282Z,1.59
2019-02-18T03:21:03.730Z,1.59
2019-02-18T03:23:31.192Z,1.46
2019-02-18T03:25:58.613Z,1.42
2019-02-18T03:29:10.542Z,1.38
2019-02-18T03:31:37.982Z,1.32
2019-02-18T03:34:12.485Z,1.29
2019-02-18T03:36:39.914Z,1.29
2019-02-18T03:39:07.372Z,1.41
2019-02-18T03:41:34.902Z,1.47
2019-02-18T03:44:02.276Z,1.39
2019-02-18T03:46:29.695Z,1.35
2019-02-18T03:48:57.105Z,1.28
2019-02-18T03:51:24.468Z,1.16
2019-02-18T03:53:52.001Z,1.09
2019-02-18T03:56:19.563Z,1.07
2019-02-18T03:58:46.921Z,1.05
2019-02-18T04:01:14.354Z,1.03
2019-02-18T04:03:41.782Z,1.01
2019-02-18T04:06:09.206Z,1.29
2019-02-18T04:08:42.988Z,1.25
2019-02-18T04:11:06.171Z,1.26
2019-02-18T04:13:33.568Z,1.29
2019-02-18T04:16:00.998Z,1.17
2019-02-18T04:18:28.534Z,1.08
2019-02-18T04:20:55.890Z,1.27
2019-02-18T04:23:23.354Z,1.05
2019-02-18T04:25:50.781Z,1.05
2019-02-18T04:28:18.220Z,0.90
2019-02-18T04:30:45.663Z,1.19
2019-02-18T04:33:13.152Z,1.10
2019-02-18T04:35:40.544Z,1.13
2019-02-18T04:38:08.129Z,0.98
2019-02-18T04:40:35.595Z,1.13
2019-02-18T04:43:03.290Z,0.99
2019-02-18T04:45:30.759Z,1.13
2019-02-18T04:47:58.208Z,0.96
2019-02-18T04:50:25.641Z,0.93
2019-02-18T04:52:53.067Z,0.82
2019-02-18T04:55:20.500Z,1.31
2019-02-18T04:57:47.882Z,1.39
2019-02-18T05:00:15.348Z,1.38
2019-02-18T05:02:42.808Z,1.39
2019-02-18T05:05:10.251Z,1.26
2019-02-18T05:07:37.802Z,1.20
2019-02-18T05:10:06.421Z,1.10
2019-02-18T05:12:33.918Z,1.01
2019-02-18T05:15:01.340Z,1.29
2019-02-18T05:17:28.772Z,1.22
2019-02-18T05:19:56.143Z,1.55
2019-02-18T05:22:23.595Z,1.65
2019-02-18T05:24:51.036Z,1.51
2019-02-18T05:27:18.489Z,1.45
2019-02-18T05:29:46.001Z,1.38
2019-02-18T05:32:13.507Z,1.32
2019-02-18T05:34:41.424Z,1.40
2019-02-18T05:37:08.853Z,1.38
2019-02-18T05:39:36.338Z,1.36
2019-02-18T05:42:03.806Z,1.27
2019-02-18T05:44:31.279Z,1.44
2019-02-18T05:46:58.724Z,1.42
2019-02-18T05:49:26.829Z,1.58
2019-02-18T05:51:54.922Z,1.47
2019-02-18T05:54:22.347Z,1.65
2019-02-18T05:56:49.808Z,1.65
2019-02-18T05:59:17.196Z,1.82
2019-02-18T06:01:44.696Z,1.87
2019-02-18T06:04:12.130Z,1.84
2019-02-18T06:06:39.543Z,1.89
2019-02-18T06:09:06.983Z,2.04
2019-02-18T06:11:34.537Z,2.00
2019-02-18T06:14:01.981Z,1.91
2019-02-18T06:16:29.412Z,1.91
2019-02-18T06:18:56.839Z,1.89
2019-02-18T06:21:24.282Z,2.44
2019-02-18T06:23:51.699Z,2.44
2019-02-18T06:26:19.131Z,2.57
2019-02-18T06:28:46.588Z,2.71
2019-02-18T06:31:14.070Z,2.70
2019-02-18T06:33:41.525Z,2.71
2019-02-18T06:36:08.953Z,2.55
2019-02-18T06:38:36.304Z,2.32
2019-02-18T06:41:03.838Z,2.19
2019-02-18T06:43:31.664Z,2.23
2019-02-18T06:46:08.111Z,2.16
2019-02-18T06:48:37.797Z,2.25
2019-02-18T06:51:05.167Z,2.40
2019-02-18T06:53:32.608Z,2.31
2019-02-18T06:56:00.096Z,2.50
2019-02-18T06:58:45.750Z,2.45
2019-02-18T07:01:21.649Z,2.53
2019-02-18T07:04:20.391Z,2.58
2019-02-18T07:07:19.651Z,2.71
2019-02-18T07:10:09.099Z,2.78
2019-02-18T07:12:48.802Z,2.76
2019-02-18T07:15:16.290Z,2.95
2019-02-18T07:17:43.762Z,3.24
2019-02-18T07:20:11.158Z,3.34
2019-02-18T07:22:38.607Z,3.36
2019-02-18T07:25:07.732Z,3.43
2019-02-18T07:27:35.134Z,3.65
2019-02-18T07:30:02.672Z,3.67
2019-02-18T07:32:30.122Z,3.77
2019-02-18T07:34:57.603Z,3.59
2019-02-18T07:37:25.051Z,3.56
2019-02-18T07:40:00.980Z,3.72
2019-02-18T07:42:21.777Z,3.99
2019-02-18T07:44:49.219Z,4.13
2019-02-18T07:47:16.625Z,4.14
2019-02-18T07:49:44.085Z,4.44
2019-02-18T07:52:11.532Z,4.50
2019-02-18T07:54:38.964Z,4.64
2019-02-18T07:57:06.435Z,4.85
2019-02-18T07:59:33.897Z,5.05
2019-02-18T08:02:01.272Z,5.11
2019-02-18T08:04:28.683Z,5.16
2019-02-18T08:06:56.140Z,5.31
2019-02-18T08:09:23.607Z,5.48
2019-02-18T08:11:51.137Z,5.71
2019-02-18T08:14:18.706Z,5.62
2019-02-18T08:16:46.150Z,5.49
2019-02-18T08:19:15.559Z,5.69
2019-02-18T08:21:44.375Z,5.92
2019-02-18T08:24:11.797Z,5.95
2019-02-18T08:26:39.331Z,5.86
2019-02-18T08:29:06.813Z,5.95
2019-02-18T08:31:34.330Z,5.83
2019-02-18T08:34:01.792Z,5.95
2019-02-18T08:36:29.243Z,5.90
2019-02-18T08:38:56.685Z,5.92
2019-02-18T08:41:24.116Z,5.90
2019-02-18T08:43:51.536Z,6.16
2019-02-18T08:46:18.997Z,6.52
2019-02-18T08:48:46.450Z,6.87
2019-02-18T08:51:13.936Z,7.45
2019-02-18T08:53:41.365Z,7.53
2019-02-18T08:56:08.766Z,7.48
2019-02-18T08:58:36.201Z,7.26
2019-02-18T09:01:03.617Z,7.06
2019-02-18T09:03:31.076Z,7.16
2019-02-18T09:05:58.506Z,7.31
2019-02-18T09:08:25.938Z,7.41
2019-02-18T09:10:53.815Z,7.92
2019-02-18T09:13:21.214Z,8.42
2019-02-18T09:15:59.440Z,8.50
2019-02-18T09:18:18.087Z,8.61
2019-02-18T09:20:45.550Z,8.55
2019-02-18T09:23:31.180Z,8.90
2019-02-18T09:26:00.390Z,9.11
2019-02-18T09:28:27.906Z,9.23
2019-02-18T09:30:56.490Z,9.22
2019-02-18T09:33:23.964Z,9.39
2019-02-18T09:35:51.628Z,9.38
2019-02-18T09:38:24.831Z,9.63
2019-02-18T09:40:51.553Z,9.63
2019-02-18T09:43:18.208Z,9.88
2019-02-18T09:45:45.669Z,9.96
2019-02-18T09:48:13.193Z,9.98
2019-02-18T09:50:40.614Z,9.65
2019-02-18T09:53:08.178Z,9.73
2019-02-18T09:55:35.684Z,9.80
2019-02-18T09:58:03.178Z,9.60
2019-02-18T10:00:30.647Z,9.68
2019-02-18T10:02:58.109Z,9.58
2019-02-18T10:05:25.555Z,9.45
2019-02-18T10:07:52.949Z,9.22
2019-02-18T10:10:20.371Z,9.22
2019-02-18T10:12:47.797Z,9.47
2019-02-18T10:15:15.261Z,9.68
2019-02-18T10:17:42.759Z,9.83
2019-02-18T10:20:10.419Z,9.61
2019-02-18T10:22:37.873Z,9.60
2019-02-18T10:25:06.405Z,9.78
2019-02-18T10:27:33.796Z,10.10
2019-02-18T10:30:01.382Z,10.30
2019-02-18T10:32:28.912Z,10.32
2019-02-18T10:34:56.398Z,10.49
2019-02-18T10:37:23.860Z,10.61
2019-02-18T10:39:51.341Z,10.70
2019-02-18T10:42:18.746Z,10.69
2019-02-18T10:44:46.573Z,10.67
2019-02-18T10:47:14.303Z,10.84
2019-02-18T10:49:41.753Z,10.93
2019-02-18T10:52:09.204Z,10.96
2019-02-18T10:54:36.695Z,11.10
2019-02-18T10:57:04.292Z,11.52
2019-02-18T10:59:31.743Z,11.44
2019-02-18T11:01:59.157Z,11.20
2019-02-18T11:04:26.938Z,11.00
2019-02-18T11:06:54.355Z,11.01
2019-02-18T11:09:21.782Z,11.03
2019-02-18T11:11:49.280Z,11.49
2019-02-18T11:14:16.801Z,11.96
2019-02-18T11:16:44.378Z,12.13
2019-02-18T11:19:11.795Z,12.05
2019-02-18T11:21:39.319Z,12.31
2019-02-18T11:24:06.767Z,12.35
2019-02-18T11:26:34.149Z,12.54
2019-02-18T11:29:01.672Z,12.74
2019-02-18T11:31:29.562Z,12.76
2019-02-18T11:33:57.064Z,12.75
2019-02-18T11:36:24.498Z,12.52
2019-02-18T11:38:51.987Z,12.33
2019-02-18T11:41:27.120Z,12.49
2019-02-18T11:43:48.835Z,12.52
2019-02-18T11:46:16.618Z,12.58
2019-02-18T11:48:44.059Z,12.76
2019-02-18T11:51:11.519Z,12.41
2019-02-18T11:53:38.953Z,12.37
2019-02-18T11:56:06.411Z,12.54
2019-02-18T11:58:33.848Z,12.91
2019-02-18T12:01:01.209Z,13.28
2019-02-18T12:03:29.042Z,13.57
2019-02-18T12:05:56.488Z,13.78
2019-02-18T12:08:23.974Z,13.76
2019-02-18T12:10:51.410Z,13.85
2019-02-18T12:13:18.894Z,14.02
2019-02-18T12:15:46.342Z,14.03
2019-02-18T12:18:13.979Z,13.95
2019-02-18T12:20:41.489Z,13.96
2019-02-18T12:23:08.869Z,14.21
2019-02-18T12:25:36.320Z,14.21
2019-02-18T12:28:03.844Z,14.27
2019-02-18T12:30:32.533Z,14.32
2019-02-18T12:33:00.261Z,14.40
2019-02-18T12:35:32.780Z,14.03
2019-02-18T12:37:57.118Z,13.77
2019-02-18T12:40:24.622Z,13.41
2019-02-18T12:42:52.017Z,13.33
2019-02-18T12:45:19.488Z,13.40
2019-02-18T12:47:46.957Z,13.36
2019-02-18T12:50:14.486Z,13.50
2019-02-18T12:52:41.842Z,13.52
2019-02-18T12:55:09.805Z,13.65
2019-02-18T12:57:37.825Z,13.70
2019-02-18T13:00:06.228Z,13.94
2019-02-18T13:02:43.710Z,13.87
2019-02-18T13:05:04.895Z,13.81
2019-02-18T13:07:32.338Z,13.76
2019-02-18T13:09:59.792Z,13.90
2019-02-18T13:12:27.197Z,14.17
2019-02-18T13:14:54.678Z,14.41
2019-02-18T13:17:22.598Z,14.54
2019-02-18T13:19:50.156Z,14.65
2019-02-18T13:22:17.598Z,14.66
2019-02-18T13:24:45.091Z,14.76
2019-02-18T13:27:12.594Z,14.76
2019-02-18T13:29:40.115Z,14.55
2019-02-18T13:32:07.867Z,14.64
2019-02-18T13:34:35.422Z,14.74
2019-02-18T13:37:03.550Z,14.79
2019-02-18T13:39:30.952Z,14.90
2019-02-18T13:41:58.454Z,14.87
2019-02-18T13:44:25.906Z,14.71
2019-02-18T13:46:53.357Z,14.81
2019-02-18T13:49:20.811Z,14.89
2019-02-18T13:51:56.241Z,14.68
2019-02-18T13:54:17.710Z,14.62
2019-02-18T13:56:45.336Z,14.50
2019-02-18T13:59:12.814Z,14.55
2019-02-18T14:01:40.245Z,14.58
2019-02-18T14:04:07.788Z,14.59
2019-02-18T14:06:35.925Z,14.62
2019-02-18T14:09:04.847Z,14.73
2019-02-18T14:11:32.418Z,14.82
2019-02-18T14:13:59.865Z,14.76
2019-02-18T14:16:27.405Z,14.71
2019-02-18T14:18:54.898Z,14.63
2019-02-18T14:21:22.360Z,14.72
2019-02-18T14:23:49.841Z,14.73
2019-02-18T14:26:17.450Z,14.73
2019-02-18T14:28:45.020Z,14.98
2019-02-18T14:31:12.668Z,15.17
2019-02-18T14:33:40.341Z,15.18
2019-02-18T14:36:08.086Z,15.44
2019-02-18T14:38:35.752Z,15.54
2019-02-18T14:41:03.348Z,15.36
2019-02-18T14:43:30.838Z,15.30
2019-02-18T14:45:58.274Z,15.09
2019-02-18T14:48:25.829Z,15.03
2019-02-18T14:50:56.611Z,14.85
2019-02-18T14:53:23.116Z,14.65
2019-02-18T14:55:50.809Z,14.80
2019-02-18T14:58:18.387Z,15.06
2019-02-18T15:00:46.356Z,15.12
2019-02-18T15:03:15.024Z,14.90
2019-02-18T15:05:42.588Z,14.80
2019-02-18T15:08:10.250Z,14.79
2019-02-18T15:10:44.757Z,14.82
2019-02-18T15:13:12.508Z,14.67
2019-02-18T15:15:40.007Z,14.59
2019-02-18T15:18:07.466Z,14.46
2019-02-18T15:20:41.314Z,14.42
2019-02-18T15:23:08.925Z,14.36
2019-02-18T15:25:36.385Z,14.25
2019-02-18T15:28:03.840Z,14.24
2019-02-18T15:30:31.972Z,14.13
2019-02-18T15:32:59.958Z,14.05
2019-02-18T15:35:27.639Z,14.01
2019-02-18T15:37:55.582Z,13.94
2019-02-18T15:40:23.192Z,13.88
2019-02-18T15:42:50.766Z,13.84
2019-02-18T15:45:19.947Z,13.76
2019-02-18T15:47:47.725Z,13.62
2019-02-18T15:50:15.178Z,13.61
2019-02-18T15:52:42.735Z,13.55
2019-02-18T15:55:11.673Z,13.49
2019-02-18T15:57:39.219Z,13.44
2019-02-18T16:00:09.957Z,13.47
2019-02-18T16:02:37.479Z,13.40
2019-02-18T16:05:05.636Z,13.37
2019-02-18T16:07:33.322Z,13.37
2019-02-18T16:10:01.138Z,13.42
2019-02-18T16:12:28.671Z,13.28
2019-02-18T16:14:56.152Z,13.28
2019-02-18T16:17:23.621Z,13.32
2019-02-18T16:19:51.109Z,13.24
2019-02-18T16:22:19.019Z,12.88
2019-02-18T16:24:46.488Z,12.28
2019-02-18T16:27:13.957Z,12.37
2019-02-18T16:29:41.489Z,12.32
2019-02-18T16:32:09.046Z,12.40
2019-02-18T16:34:36.556Z,12.26
2019-02-18T16:37:04.444Z,12.12
2019-02-18T16:39:32.053Z,12.08
2019-02-18T16:41:59.973Z,11.99
2019-02-18T16:44:27.541Z,11.79
2019-02-18T16:46:55.052Z,11.73
2019-02-18T16:49:22.496Z,11.63
2019-02-18T16:51:50.153Z,11.57
2019-02-18T16:54:17.765Z,11.43
2019-02-18T16:56:45.645Z,11.34
2019-02-18T16:59:13.081Z,11.38
2019-02-18T17:01:40.621Z,11.41
2019-02-18T17:04:08.122Z,11.05
2019-02-18T17:06:35.673Z,10.88
2019-02-18T17:09:09.835Z,10.78
2019-02-18T17:11:37.792Z,10.65
2019-02-18T17:14:05.268Z,10.58
2019-02-18T17:16:41.570Z,10.61
2019-02-18T17:19:09.154Z,10.39
2019-02-18T17:21:36.633Z,10.20
2019-02-18T17:24:04.314Z,10.18
2019-02-18T17:26:32.206Z,10.31
2019-02-18T17:28:59.734Z,10.37
2019-02-18T17:31:27.158Z,10.30
2019-02-18T17:33:54.804Z,10.14
2019-02-18T17:36:22.373Z,10.12
2019-02-18T17:38:49.998Z,9.99
2019-02-18T17:41:17.498Z,10.01
2019-02-18T17:43:44.992Z,9.91
2019-02-18T17:46:12.409Z,9.93
2019-02-18T17:48:39.933Z,9.87
2019-02-18T17:51:07.309Z,9.73
2019-02-18T17:53:34.760Z,9.73
2019-02-18T17:56:02.776Z,9.63
2019-02-18T17:58:30.273Z,9.68
2019-02-18T18:00:58.757Z,9.55
2019-02-18T18:03:26.770Z,9.46
2019-02-18T18:05:54.252Z,9.44
2019-02-18T18:08:21.993Z,9.21
2019-02-18T18:10:49.534Z,9.14
2019-02-18T18:13:24.770Z,9.07
2019-02-18T18:15:46.352Z,9.02
2019-02-18T18:18:13.864Z,8.86
2019-02-18T18:20:42.233Z,8.80
2019-02-18T18:23:10.009Z,8.83
2019-02-18T18:25:38.325Z,8.80
2019-02-18T18:28:08.001Z,8.72
2019-02-18T18:30:36.305Z,8.52
2019-02-18T18:33:03.753Z,8.51
2019-02-18T18:35:35.696Z,8.57
2019-02-18T18:38:03.457Z,8.49
2019-02-18T18:40:31.238Z,8.53
2019-02-18T18:42:58.761Z,8.53
2019-02-18T18:45:26.247Z,8.32
2019-02-18T18:47:54.066Z,8.38
2019-02-18T18:50:22.770Z,8.32
2019-02-18T18:52:50.204Z,8.03
2019-02-18T18:55:18.166Z,7.90
2019-02-18T18:57:45.701Z,7.80
2019-02-18T19:00:17.646Z,7.58
2019-02-18T19:02:46.157Z,7.59
2019-02-18T19:05:13.779Z,7.68
2019-02-18T19:07:41.243Z,7.76
2019-02-18T19:10:09.107Z,7.74
2019-02-18T19:12:36.724Z,7.69
2019-02-18T19:15:04.442Z,7.88
2019-02-18T19:18:11.370Z,7.91
2019-02-18T19:21:13.181Z,8.11
2019-02-18T19:23:40.923Z,7.97
2019-02-18T19:26:08.361Z,7.69
2019-02-18T19:28:35.744Z,7.63
2019-02-18T19:31:03.274Z,7.70
2019-02-18T19:33:31.221Z,7.67
2019-02-18T19:35:58.751Z,7.74
2019-02-18T19:38:26.729Z,7.57
2019-02-18T19:40:54.123Z,7.60
2019-02-18T19:43:21.916Z,7.67
2019-02-18T19:45:50.099Z,7.62
2019-02-18T19:48:17.706Z,7.60
2019-02-18T19:50:45.253Z,7.54
2019-02-18T19:53:12.853Z,7.51
2019-02-18T19:55:40.679Z,7.71
2019-02-18T19:58:08.333Z,7.82
2019-02-18T20:00:35.809Z,7.68
2019-02-18T20:03:03.288Z,7.83
2019-02-18T20:05:30.778Z,7.66
2019-02-18T20:07:58.313Z,7.78
2019-02-18T20:10:25.788Z,7.83
2019-02-18T20:12:53.578Z,8.16
2019-02-18T20:15:21.050Z,8.45
2019-02-18T20:17:48.620Z,8.47
2019-02-18T20:20:16.256Z,8.48
2019-02-18T20:22:43.705Z,7.96
2019-02-18T20:25:11.292Z,7.82
2019-02-18T20:27:38.742Z,7.78
2019-02-18T20:30:07.120Z,7.68
2019-02-18T20:32:35.943Z,7.59
2019-02-18T20:35:04.119Z,7.61
2019-02-18T20:37:32.213Z,7.47
2019-02-18T20:39:59.614Z,7.43
2019-02-18T20:42:27.064Z,7.28
2019-02-18T20:44:55.209Z,7.40
2019-02-18T20:47:22.695Z,7.43
2019-02-18T20:49:50.106Z,7.48
2019-02-18T20:52:17.597Z,7.43
2019-02-18T20:54:45.003Z,7.43
2019-02-18T20:57:12.460Z,7.34
2019-02-18T20:59:40.476Z,7.30
2019-02-18T21:02:08.120Z,7.26
2019-02-18T21:04:35.564Z,7.24
2019-02-18T21:07:03.721Z,7.22
2019-02-18T21:09:31.145Z,7.10
2019-02-18T21:11:58.591Z,7.24
2019-02-18T21:14:26.052Z,7.33
2019-02-18T21:16:53.533Z,7.41
2019-02-18T21:19:21.127Z,7.42
2019-02-18T21:21:48.594Z,7.33
2019-02-18T21:24:16.118Z,7.23
2019-02-18T21:26:43.555Z,7.24
2019-02-18T21:29:11.033Z,7.14
2019-02-18T21:31:38.470Z,7.12
2019-02-18T21:34:05.954Z,7.15
2019-02-18T21:36:33.935Z,7.09
2019-02-18T21:39:01.433Z,7.02
2019-02-18T21:41:28.838Z,6.84
2019-02-18T21:43:56.314Z,6.82
2019-02-18T21:46:23.906Z,6.78
2019-02-18T21:48:51.546Z,6.87
2019-02-18T21:51:19.028Z,6.91
2019-02-18T21:53:46.911Z,6.84
2019-02-18T21:56:14.440Z,6.87
2019-02-18T21:58:42.082Z,6.73
2019-02-18T22:01:09.718Z,6.66
2019-02-18T22:03:37.177Z,6.60
2019-02-18T22:06:04.621Z,6.44
2019-02-18T22:08:32.074Z,6.40
2019-02-18T22:10:59.917Z,6.43
2019-02-18T22:13:27.448Z,6.32
2019-02-18T22:15:54.889Z,6.48
2019-02-18T22:18:22.380Z,6.60
2019-02-18T22:20:49.923Z,6.70
2019-02-18T22:23:17.365Z,6.75
2019-02-18T22:25:44.884Z,6.72
2019-02-18T22:28:12.501Z,6.55
2019-02-18T22:30:40.407Z,6.66
2019-02-18T22:33:07.872Z,6.86
2019-02-18T22:35:35.568Z,6.77
2019-02-18T22:38:03.074Z,6.84
2019-02-18T22:40:30.549Z,6.73
2019-02-18T22:42:58.024Z,6.71
2019-02-18T22:45:25.539Z,6.70
2019-02-18T22:47:53.127Z,6.65
2019-02-18T22:50:20.690Z,6.68
2019-02-18T22:52:48.158Z,6.69
2019-02-18T22:55:15.599Z,6.49
2019-02-18T22:57:43.042Z,6.37
2019-02-18T23:00:50.120Z,6.33
2019-02-18T23:03:17.570Z,6.30
2019-02-18T23:05:45.090Z,6.20
2019-02-18T23:08:12.629Z,6.22
2019-02-18T23:10:40.159Z,5.94
2019-02-18T23:13:07.665Z,5.70
2019-02-18T23:15:35.339Z,5.47
2019-02-18T23:18:02.888Z,5.16
2019-02-18T23:20:30.366Z,5.14
2019-02-18T23:22:57.833Z,5.19
2019-02-18T23:25:25.207Z,5.25
2019-02-18T23:27:52.636Z,5.17
2019-02-18T23:30:20.129Z,5.28
2019-02-18T23:32:48.099Z,5.39
2019-02-18T23:35:15.654Z,5.47
2019-02-18T23:37:43.061Z,5.63
2019-02-18T23:40:10.480Z,5.66
2019-02-18T23:42:37.900Z,5.74
2019-02-18T23:45:05.344Z,5.68
2019-02-18T23:47:32.697Z,5.73
2019-02-18T23:50:00.303Z,5.69
2019-02-18T23:52:27.803Z,5.78
2019-02-18T23:54:55.224Z,5.81
2019-02-18T23:57:22.714Z,5.75
2019-02-18T23:59:50.170Z,5.80
